Time;durP1;ratioP1;P1;durP2;ratioP2;P2;SDS_P1;SDS_P2;PMS_P1;PMS_P2;Temp;Humidity;BMP_temperature;BMP_pressure;BME280_temperature;BME280_humidity;BME280_pressure;Samples;Min_cycle;Max_cycle;Signal;HPM_P1;HPM_P2
2021/12/17 00:05:17;;;;;;;2.40;2.20;;;;;;;6.40;74.77;101070.84;5035748;28;20238;-81
2021/12/17 00:08:39;;;;;;;2.50;2.30;;;;;;;6.41;74.83;101068.03;5038338;28;20241;-81
2021/12/17 00:11:28;;;;;;;2.67;2.47;;;;;;;6.40;74.94;101063.69;5061085;23;20234;-82
2021/12/17 00:14:05;;;;;;;2.37;2.17;;;;;;;6.30;75.14;101048.84;5054891;23;20298;-82
2021/12/17 00:17:09;;;;;;;2.50;2.30;;;;;;;6.46;74.72;101055.06;5047341;23;20210;-81
2021/12/17 00:40:14;;;;;;;2.20;2.07;;;;;;;6.56;73.92;101058.47;5058196;28;20202;-82
2021/12/17 00:43:59;;;;;;;3.90;2.83;;;;;;;6.29;74.74;101042.69;5058459;23;20198;31
2021/12/17 00:44:18;;;;;;;2.97;2.77;;;;;;;6.28;75.00;101037.50;5049314;23;20234;-81
2021/12/17 00:50:42;;;;;;;2.70;2.50;;;;;;;6.46;73.77;101059.56;5012890;23;20257;-81
2021/12/17 00:53:29;;;;;;;2.90;2.70;;;;;;;6.42;74.45;101047.56;5034109;23;20226;-80
2021/12/17 00:57:28;;;;;;;2.80;2.60;;;;;;;6.15;74.43;101020.16;5052851;23;20225;-81
2021/12/17 01:00:22;;;;;;;3.30;2.57;;;;;;;6.47;74.38;101050.59;5057660;28;20237;-81
2021/12/17 01:04:05;;;;;;;2.80;2.50;;;;;;;6.40;74.28;101047.72;5057243;28;20217;-81
2021/12/17 01:07:35;;;;;;;2.97;2.77;;;;;;;6.29;74.90;101050.66;5047559;23;20232;-81
2021/12/17 01:14:05;;;;;;;3.23;2.97;;;;;;;6.20;75.05;101030.31;5060905;23;20278;-82
2021/12/17 01:17:23;;;;;;;3.30;3.00;;;;;;;6.17;74.83;101038.59;5035750;23;20221;-81
2021/12/17 01:35:38;;;;;;;3.60;3.30;;;;;;;6.21;74.81;101029.31;5037132;28;20222;-80
2021/12/17 01:42:17;;;;;;;3.90;3.50;;;;;;;6.27;74.36;101034.00;5057544;28;20204;-83
2021/12/17 01:59:24;;;;;;;3.60;3.23;;;;;;;6.30;73.07;101027.53;5052710;23;20208;-82
2021/12/17 02:02:45;;;;;;;3.80;3.50;;;;;;;6.12;74.11;101028.41;5076786;28;20236;-82
2021/12/17 02:06:04;;;;;;;3.80;3.50;;;;;;;6.15;73.19;101009.50;5059917;28;20213;-82
2021/12/17 02:28:56;;;;;;;4.10;3.60;;;;;;;5.81;74.43;100967.84;5244058;23;20229;-81
2021/12/17 02:31:38;;;;;;;4.13;3.73;;;;;;;5.76;75.01;100970.97;5076882;28;20204;-82
2021/12/17 02:35:27;;;;;;;4.90;4.27;;;;;;;5.86;74.39;100962.88;5083944;23;20209;-82
2021/12/17 02:39:11;;;;;;;4.23;3.83;;;;;;;5.83;73.82;100953.41;5071062;23;20225;-82
2021/12/17 02:46:20;;;;;;;4.07;3.67;;;;;;;5.80;74.19;100952.88;5064367;23;20273;-83
2021/12/17 02:49:19;;;;;;;4.40;4.00;;;;;;;5.91;73.26;100947.31;5073812;23;20217;-82
2021/12/17 02:52:49;;;;;;;4.00;3.70;;;;;;;5.83;73.54;100944.59;5171796;22;20214;-80
2021/12/17 02:55:32;;;;;;;4.30;3.90;;;;;;;5.81;73.82;100943.91;5081826;23;20252;-82
2021/12/17 02:58:29;;;;;;;3.60;3.30;;;;;;;5.71;74.00;100931.53;5173764;23;20244;-82
2021/12/17 03:01:55;;;;;;;4.40;3.90;;;;;;;5.69;73.40;100914.09;5076329;23;20201;-83
2021/12/17 03:05:06;;;;;;;4.10;3.80;;;;;;;5.59;74.51;100908.03;5078188;28;20208;-82
2021/12/17 03:07:42;;;;;;;4.40;4.00;;;;;;;5.63;73.97;100893.44;5069153;23;20668;-82
2021/12/17 03:10:18;;;;;;;4.13;3.73;;;;;;;5.63;73.92;100885.47;5048024;28;20221;-82
2021/12/17 03:12:49;;;;;;;4.07;3.67;;;;;;;5.54;73.38;100873.13;5051474;28;20225;-81
2021/12/17 03:16:12;;;;;;;4.00;3.70;;;;;;;5.69;72.95;100884.84;5055267;28;20236;-82
2021/12/17 03:25:22;;;;;;;3.73;3.43;;;;;;;5.63;72.08;100888.13;5081943;23;20229;-82
2021/12/17 03:28:52;;;;;;;4.17;3.77;;;;;;;5.72;72.01;100865.91;5243278;23;20244;-80
2021/12/17 03:32:05;;;;;;;4.10;3.70;;;;;;;5.66;72.12;100867.34;5106422;23;20225;-82
2021/12/17 03:38:29;;;;;;;4.00;3.60;;;;;;;5.57;72.07;100870.13;4997217;23;20242;-82
2021/12/17 03:42:06;;;;;;;3.70;3.30;;;;;;;5.71;71.37;100878.34;5144113;23;20232;-82
2021/12/17 03:45:53;;;;;;;3.90;3.50;;;;;;;5.71;71.41;100861.56;5147681;23;20294;-82
2021/12/17 03:49:09;;;;;;;3.53;3.23;;;;;;;5.87;70.39;100860.84;5131604;23;20210;-82
2021/12/17 03:52:10;;;;;;;3.57;3.10;;;;;;;5.89;70.03;100846.41;5033365;23;20602;-82
2021/12/17 03:55:41;;;;;;;3.53;3.23;;;;;;;6.06;69.23;100857.94;5088557;23;20249;-82
2021/12/17 03:58:57;;;;;;;3.70;3.40;;;;;;;6.00;69.31;100851.44;5057956;23;20260;-82
2021/12/17 04:02:38;;;;;;;3.60;3.30;;;;;;;6.07;69.49;100851.59;5078324;23;20221;-83
2021/12/17 04:06:02;;;;;;;3.80;3.50;;;;;;;6.03;69.35;100848.44;5052469;23;20198;-82
2021/12/17 04:09:59;;;;;;;3.33;3.03;;;;;;;6.10;68.44;100853.97;5056999;23;20238;-82
2021/12/17 04:13:36;;;;;;;3.53;3.23;;;;;;;6.14;68.48;100857.97;5015860;23;20242;-82
2021/12/17 04:16:40;;;;;;;3.33;3.03;;;;;;;6.02;68.70;100852.09;5035642;28;20680;-82
2021/12/17 04:20:06;;;;;;;3.37;2.97;;;;;;;6.19;68.14;100837.03;5032364;23;20219;-82
2021/12/17 04:22:58;;;;;;;3.37;3.07;;;;;;;6.21;68.08;100853.66;5056411;23;20226;-82
2021/12/17 04:26:31;;;;;;;3.73;3.33;;;;;;;6.30;67.16;100839.38;5055149;28;20222;-82
2021/12/17 04:30:38;;;;;;;3.30;3.00;;;;;;;6.40;67.54;100831.25;5061058;23;20214;-83
2021/12/17 04:34:00;;;;;;;3.50;3.20;;;;;;;6.33;67.42;100832.91;5221391;23;20236;-82
2021/12/17 04:37:24;;;;;;;3.30;2.93;;;;;;;6.26;68.29;100829.22;5084286;23;20257;-83
2021/12/17 04:40:26;;;;;;;4.40;3.30;;;;;;;6.24;67.90;100842.69;5057919;23;20234;-81
2021/12/17 04:57:31;;;;;;;3.67;3.30;;;;;;;6.40;66.89;100826.75;5062002;23;20213;-82
2021/12/17 05:00:55;;;;;;;4.23;3.60;;;;;;;6.36;67.57;100828.09;5068331;23;20218;-82
2021/12/17 05:04:15;;;;;;;4.00;3.63;;;;;;;6.30;67.09;100799.44;5068490;23;20349;-82
2021/12/17 05:18:15;;;;;;;4.50;4.10;;;;;;;6.55;66.12;100840.25;1412908;23;20497;-81
2021/12/17 05:20:11;;;;;;;6.37;5.07;;;;;;;6.44;66.84;100856.56;5043665;23;20222;-82
2021/12/17 05:23:51;;;;;;;3.53;3.23;;;;;;;6.15;66.72;100846.34;5049813;23;20233;-82
2021/12/17 05:27:06;;;;;;;4.20;3.63;;;;;;;6.33;66.89;100878.16;5058215;23;20245;-82
2021/12/17 05:30:18;;;;;;;4.43;3.33;;;;;;;6.41;65.55;100867.53;5061743;23;20220;-81
2021/12/17 05:33:32;;;;;;;3.50;3.20;;;;;;;6.53;65.09;100895.53;5068124;23;20222;-82
2021/12/17 05:37:05;;;;;;;3.57;3.27;;;;;;;6.52;64.57;100878.72;5064771;23;20227;-81
2021/12/17 05:40:20;;;;;;;4.37;3.50;;;;;;;6.45;65.81;100882.16;5041325;23;20230;-82
2021/12/17 05:43:57;;;;;;;3.97;3.57;;;;;;;6.38;65.66;100881.16;4497319;23;16375373;-82
2021/12/17 05:47:59;;;;;;;3.93;3.53;;;;;;;6.47;64.98;100912.97;5142525;23;20556;-82
2021/12/17 05:51:11;;;;;;;4.20;3.80;;;;;;;6.56;64.75;100916.50;5072779;23;20217;-83
2021/12/17 05:54:17;;;;;;;3.43;3.13;;;;;;;6.45;65.44;100928.25;5074119;23;20248;-84
2021/12/17 05:57:21;;;;;;;3.63;3.33;;;;;;;6.22;65.71;100916.53;5254713;23;20192;-82
2021/12/17 06:00:23;;;;;;;4.00;3.37;;;;;;;6.10;66.19;100907.19;5049674;23;20243;-82
2021/12/17 06:04:18;;;;;;;4.07;3.77;;;;;;;5.91;66.69;100894.97;5079383;23;20236;-82
2021/12/17 06:07:31;;;;;;;4.80;3.50;;;;;;;6.04;66.38;100919.28;5080358;23;20253;-82
2021/12/17 06:11:17;;;;;;;3.90;3.50;;;;;;;6.00;66.65;100923.25;5075771;23;20247;-82
2021/12/17 06:14:55;;;;;;;4.57;4.03;;;;;;;5.92;66.55;100922.41;5079186;23;20229;-82
2021/12/17 06:18:30;;;;;;;4.67;3.53;;;;;;;6.06;66.33;100933.28;5051305;23;20250;-83
2021/12/17 06:22:02;;;;;;;4.33;3.70;;;;;;;5.97;66.48;100912.13;5045149;23;20234;-82
2021/12/17 06:25:00;;;;;;;4.13;3.73;;;;;;;6.05;67.06;100928.94;5047701;23;20221;-82
2021/12/17 06:27:54;;;;;;;4.83;3.97;;;;;;;5.99;66.85;100918.09;5059271;28;20202;-82
2021/12/17 06:31:06;;;;;;;4.93;4.17;;;;;;;5.95;67.22;100933.53;5066388;23;20242;-83
2021/12/17 06:34:16;;;;;;;5.17;4.50;;;;;;;5.75;68.04;100924.06;5063507;23;20290;-81
2021/12/17 06:40:58;;;;;;;5.90;5.23;;;;;;;5.68;69.44;100937.19;5075982;23;20256;-81
2021/12/17 06:44:37;;;;;;;5.77;5.17;;;;;;;5.46;70.88;100966.09;5083596;23;20219;-81
2021/12/17 06:48:09;;;;;;;6.30;5.37;;;;;;;5.36;70.89;100947.59;5228541;23;20213;-81
2021/12/17 06:56:01;;;;;;;6.00;5.40;;;;;;;5.39;71.65;100960.56;5065865;23;20645;-81
2021/12/17 07:06:31;;;;;;;7.57;6.77;;;;;;;5.32;72.07;100960.31;5079697;23;20260;-80
2021/12/17 07:10:16;;;;;;;7.07;6.33;;;;;;;5.48;71.94;100988.03;5072893;23;20280;-81
2021/12/17 07:17:25;;;;;;;8.53;7.30;;;;;;;5.47;73.20;101000.47;5186036;23;20229;-81
2021/12/17 07:28:06;;;;;;;8.87;7.37;;;;;;;5.65;72.07;101006.59;5074903;23;20228;-81
2021/12/17 07:42:09;;;;;;;8.87;6.83;;;;;;;6.22;70.44;100999.03;5038186;28;20206;-81
2021/12/17 07:45:20;;;;;;;8.37;6.27;;;;;;;6.30;69.18;100991.09;5043871;23;20298;-81
2021/12/17 07:48:51;;;;;;;8.23;6.73;;;;;;;6.32;69.54;100990.94;5045651;23;20226;-81
2021/12/17 07:52:12;;;;;;;8.03;6.57;;;;;;;6.41;68.98;100982.84;5057704;23;20233;-81
2021/12/17 07:55:12;;;;;;;7.43;6.10;;;;;;;6.51;68.43;100988.03;5057195;28;20186;-80
2021/12/17 07:58:13;;;;;;;8.07;6.37;;;;;;;6.56;67.89;100999.03;5037292;23;20239;-81
2021/12/17 08:01:40;;;;;;;7.30;6.30;;;;;;;6.71;67.47;100997.44;5116140;23;20217;-81
2021/12/17 08:05:23;;;;;;;6.60;5.90;;;;;;;6.82;66.91;101002.44;5132135;23;20221;-81
2021/12/17 08:08:41;;;;;;;6.90;6.10;;;;;;;6.97;66.80;100998.16;5061297;23;20217;-81
2021/12/17 08:11:55;;;;;;;7.83;6.47;;;;;;;7.04;66.27;100996.53;5071402;23;20218;-81
2021/12/17 08:15:14;;;;;;;6.27;5.27;;;;;;;7.02;66.13;100993.19;5063869;23;20241;-81
2021/12/17 08:25:43;;;;;;;6.43;4.97;;;;;;;6.85;65.28;100977.31;5057945;28;20225;-81
2021/12/17 08:29:24;;;;;;;6.43;5.40;;;;;;;6.93;65.50;100993.31;5060316;23;20207;-81
2021/12/17 08:32:46;;;;;;;6.70;5.13;;;;;;;7.12;65.29;100998.38;5042014;23;20214;-81
2021/12/17 08:36:29;;;;;;;5.53;4.57;;;;;;;7.12;64.61;101010.84;5061089;23;20234;-83
2021/12/17 08:39:44;;;;;;;6.33;4.87;;;;;;;7.11;64.07;101018.00;5071106;23;20269;-81
2021/12/17 08:43:29;;;;;;;6.57;5.20;;;;;;;7.16;63.65;101017.53;5017017;28;20231;-81
2021/12/17 08:46:33;;;;;;;5.77;4.80;;;;;;;6.94;64.79;100997.66;5034900;23;20253;-83
2021/12/17 08:50:38;;;;;;;7.37;5.03;;;;;;;7.09;64.25;100990.72;5015254;28;20194;-83
2021/12/17 08:53:41;;;;;;;5.90;5.10;;;;;;;7.01;65.12;100998.66;5024813;23;20289;-82
2021/12/17 08:56:47;;;;;;;6.50;5.27;;;;;;;7.13;64.11;101009.88;5049324;28;20174;-83
2021/12/17 09:00:44;;;;;;;6.57;5.00;;;;;;;7.27;64.27;101022.56;5050550;23;20206;-81
2021/12/17 09:04:17;;;;;;;6.00;5.17;;;;;;;7.40;63.28;101034.41;5037840;28;20198;-81
2021/12/17 09:07:45;;;;;;;5.83;4.77;;;;;;;7.34;63.31;101032.38;5043363;23;20309;-81
2021/12/17 09:11:03;;;;;;;6.57;5.33;;;;;;;7.41;63.79;101030.75;5125574;23;20234;-80
2021/12/17 09:18:04;;;;;;;6.23;4.87;;;;;;;7.36;63.26;101030.41;4972676;23;20202;-81
2021/12/17 09:21:12;;;;;;;6.43;5.00;;;;;;;7.28;63.33;101018.91;5070392;23;20236;-82
2021/12/17 09:24:39;;;;;;;5.63;5.03;;;;;;;7.37;63.31;101047.22;5087449;23;20206;-81
2021/12/17 09:27:46;;;;;;;6.50;5.17;;;;;;;7.46;63.34;101036.41;5085574;23;20227;-82
2021/12/17 09:30:50;;;;;;;6.90;4.43;;;;;;;7.41;62.49;101043.22;5048403;23;20228;-83
2021/12/17 09:34:37;;;;;;;5.67;4.90;;;;;;;7.42;62.81;101045.72;5071423;23;20229;-80
2021/12/17 09:37:33;;;;;;;4.97;4.47;;;;;;;7.33;62.49;101029.88;5076482;28;20198;-82
2021/12/17 09:40:26;;;;;;;6.47;4.80;;;;;;;7.38;63.09;101046.22;5030052;23;20246;-83
2021/12/17 09:43:37;;;;;;;6.27;4.90;;;;;;;7.42;63.17;101042.22;5038898;23;20223;-83
2021/12/17 09:47:12;;;;;;;6.23;4.50;;;;;;;7.38;62.95;101039.03;5023170;28;20229;-83
2021/12/17 09:50:36;;;;;;;7.87;5.03;;;;;;;7.37;63.63;101052.56;5065340;23;20212;-82
2021/12/17 09:53:54;;;;;;;5.50;4.93;;;;;;;7.32;63.13;101044.22;5073387;23;20241;-82
2021/12/17 09:56:57;;;;;;;7.13;4.23;;;;;;;7.37;63.23;101034.72;5069946;23;20222;-83
2021/12/17 10:00:47;;;;;;;6.33;5.13;;;;;;;7.31;63.51;101035.38;5072872;23;20206;-83
2021/12/17 10:04:17;;;;;;;7.67;4.93;;;;;;;7.51;62.22;101026.06;5066024;23;20225;-83
2021/12/17 10:07:27;;;;;;;7.33;4.70;;;;;;;7.57;61.93;101021.91;5060707;28;20226;-83
2021/12/17 10:10:40;;;;;;;8.90;5.53;;;;;;;7.57;62.83;101027.22;5032329;23;20214;-82
2021/12/17 10:14:22;;;;;;;6.63;5.10;;;;;;;7.44;62.43;101006.41;5021166;28;20207;-83
2021/12/17 10:17:43;;;;;;;6.83;5.30;;;;;;;7.52;62.09;101014.38;5059262;23;20210;-83
2021/12/17 10:20:31;;;;;;;6.87;5.03;;;;;;;7.28;61.90;100987.72;5049885;23;20229;-83
2021/12/17 10:23:42;;;;;;;7.50;5.77;;;;;;;7.54;62.42;101019.56;5060452;28;20186;-83
2021/12/17 10:26:41;;;;;;;6.47;4.97;;;;;;;7.57;62.32;101031.72;5043213;28;20225;-84
2021/12/17 10:29:56;;;;;;;6.30;5.23;;;;;;;7.45;61.76;101032.06;5075635;23;20237;-83
2021/12/17 10:33:08;;;;;;;6.63;5.30;;;;;;;7.51;62.36;101033.25;1694200;23;20209;-81
2021/12/17 10:36:22;;;;;;;7.97;5.70;;;;;;;7.36;62.21;101011.72;5009972;23;20281;-82
2021/12/17 10:40:08;;;;;;;7.50;5.07;;;;;;;7.39;62.80;101039.88;5123393;23;20233;-83
2021/12/17 10:47:33;;;;;;;8.37;5.40;;;;;;;7.26;63.27;101010.22;5025277;23;20257;-82
2021/12/17 10:50:51;;;;;;;8.40;6.20;;;;;;;7.48;62.39;101013.06;4979993;29;20200;-83
2021/12/17 10:58:09;;;;;;;7.97;5.60;;;;;;;7.32;63.62;100993.56;5003365;23;20210;-82
2021/12/17 11:02:12;;;;;;;8.63;5.93;;;;;;;7.27;63.29;100986.06;5050747;23;20234;-83
2021/12/17 11:05:54;;;;;;;8.20;5.87;;;;;;;7.11;63.92;100986.03;5072391;23;20214;-82
2021/12/17 11:09:01;;;;;;;7.90;5.80;;;;;;;7.08;63.67;100979.22;5065424;23;20276;-83
2021/12/17 11:11:47;;;;;;;6.97;5.33;;;;;;;7.19;62.85;100982.53;5123603;23;20243;-83
2021/12/17 11:15:42;;;;;;;8.03;5.27;;;;;;;7.15;62.02;100976.69;5048239;23;20222;-82
2021/12/17 11:19:41;;;;;;;6.70;5.37;;;;;;;7.22;62.73;100984.88;5139308;23;20234;-79
2021/12/17 11:22:57;;;;;;;7.30;5.23;;;;;;;7.38;62.46;100977.72;5007394;28;20227;-82
2021/12/17 11:26:47;;;;;;;7.70;5.50;;;;;;;7.14;62.82;100961.69;5130470;23;20219;-82
2021/12/17 11:30:44;;;;;;;7.73;5.40;;;;;;;6.98;63.15;100941.22;5202873;23;20234;-83
2021/12/17 11:33:54;;;;;;;6.70;4.87;;;;;;;7.28;61.69;100957.56;5066908;23;20244;-83
2021/12/17 11:37:33;;;;;;;8.83;5.47;;;;;;;7.13;63.20;100951.22;5041876;23;20234;-82
2021/12/17 11:40:42;;;;;;;8.27;5.70;;;;;;;7.36;62.34;100963.75;5083579;23;20214;-82
2021/12/17 11:45:24;;;;;;;7.83;5.87;;;;;;;7.40;62.64;100962.41;5128484;23;20229;-81
2021/12/17 11:49:24;;;;;;;10.30;5.83;;;;;;;7.72;62.08;100966.03;5041059;23;20226;31
2021/12/17 11:52:55;;;;;;;9.10;6.50;;;;;;;7.73;62.72;100971.22;5018658;23;20222;-82
2021/12/17 12:01:09;;;;;;;8.80;6.03;;;;;;;7.53;63.73;100968.06;5053763;23;20226;-82
2021/12/17 12:04:35;;;;;;;10.40;6.87;;;;;;;7.55;63.81;100940.41;5031641;23;20234;-82
2021/12/17 12:08:20;;;;;;;8.70;6.93;;;;;;;7.69;63.62;100948.56;5213986;23;20202;-82
2021/12/17 12:12:41;;;;;;;9.03;5.97;;;;;;;7.55;63.92;100943.06;5057382;23;20233;-82
2021/12/17 12:20:10;;;;;;;8.83;6.63;;;;;;;7.31;64.20;100952.75;4997334;28;20222;-81
2021/12/17 12:23:18;;;;;;;7.77;6.20;;;;;;;7.30;64.46;100947.56;5021039;23;20212;-82
2021/12/17 12:26:44;;;;;;;9.03;6.27;;;;;;;7.14;64.96;100948.38;5048241;23;20218;-82
2021/12/17 12:29:36;;;;;;;7.93;6.60;;;;;;;7.20;64.68;100958.38;5127562;23;20249;-82
2021/12/17 12:33:06;;;;;;;8.17;5.80;;;;;;;7.14;64.69;100943.03;2852505;27;65124586;-83
2021/12/17 12:36:12;;;;;;;6.40;5.20;;;;;;;7.05;64.61;100923.56;5100363;22;20217;-83
2021/12/17 12:39:35;;;;;;;7.40;5.83;;;;;;;7.14;64.56;100936.91;5112172;22;20239;-85
2021/12/17 12:43:11;;;;;;;8.47;6.30;;;;;;;7.15;64.09;100928.72;5090688;22;20224;-80
2021/12/17 12:46:44;;;;;;;10.27;5.97;;;;;;;7.30;64.65;100944.91;5060351;28;20207;-83
2021/12/17 12:49:53;;;;;;;8.20;5.93;;;;;;;7.28;64.16;100936.25;5050386;23;20234;-82
2021/12/17 12:53:24;;;;;;;8.97;6.13;;;;;;;7.29;64.20;100935.22;5015734;28;20199;-82
2021/12/17 12:56:34;;;;;;;7.70;5.77;;;;;;;7.32;64.35;100933.09;5039585;23;20196;-82
2021/12/17 13:00:40;;;;;;;7.67;5.73;;;;;;;7.03;64.84;100920.25;5051597;23;20241;-82
2021/12/17 13:04:31;;;;;;;7.70;5.73;;;;;;;7.24;64.25;100933.06;5014812;28;20215;-82
2021/12/17 13:08:04;;;;;;;7.97;5.70;;;;;;;7.28;64.58;100933.59;5014922;28;20211;-83
2021/12/17 13:11:09;;;;;;;9.37;6.07;;;;;;;7.18;64.42;100951.56;5031738;23;20222;-82
2021/12/17 13:14:23;;;;;;;7.97;5.40;;;;;;;7.19;64.09;100942.56;4995136;28;20215;-82
2021/12/17 13:22:28;;;;;;;8.63;5.90;;;;;;;7.01;65.09;100953.38;5042191;23;20221;-82
2021/12/17 13:25:44;;;;;;;7.80;6.07;;;;;;;6.82;64.79;100922.53;5017028;28;20246;-82
2021/12/17 13:29:37;;;;;;;7.53;6.17;;;;;;;6.68;65.18;100906.34;5069327;23;20228;-81
2021/12/17 13:32:13;;;;;;;6.70;5.33;;;;;;;6.78;64.89;100937.19;4966045;28;20298;-82
2021/12/17 13:35:24;;;;;;;6.57;5.37;;;;;;;6.82;64.37;100932.34;5028736;28;20187;-82
2021/12/17 13:38:23;;;;;;;7.90;5.60;;;;;;;6.72;65.04;100943.16;5133944;23;20194;-81
2021/12/17 13:46:03;;;;;;;7.37;4.97;;;;;;;6.57;64.96;100934.16;5140558;23;20257;-81
2021/12/17 13:49:19;;;;;;;10.77;5.40;;;;;;;6.58;65.03;100935.78;5049634;23;20658;-82
2021/12/17 13:52:06;;;;;;;7.00;5.57;;;;;;;6.55;64.74;100936.97;5030405;23;20219;-82
2021/12/17 13:55:37;;;;;;;6.93;5.43;;;;;;;6.28;65.29;100907.91;5026084;23;20222;-81
2021/12/17 13:59:01;;;;;;;7.40;5.97;;;;;;;6.33;65.52;100928.72;5044355;23;20245;-82
2021/12/17 14:01:37;;;;;;;7.33;5.43;;;;;;;6.48;65.79;100935.94;5054791;23;20235;-82
2021/12/17 14:04:28;;;;;;;6.27;5.23;;;;;;;6.30;64.94;100900.59;5022055;23;20291;-82
2021/12/17 14:07:13;;;;;;;7.77;5.07;;;;;;;6.48;65.94;100927.13;5024144;23;20524;-82
2021/12/17 14:16:57;;;;;;;6.67;4.97;;;;;;;6.28;65.20;100921.22;4998048;28;20212;-82
2021/12/17 14:20:35;;;;;;;7.07;5.53;;;;;;;6.22;66.14;100929.00;5029073;23;20258;-82
2021/12/17 14:28:04;;;;;;;7.63;5.10;;;;;;;6.10;64.34;100909.84;5048239;23;20231;-82
2021/12/17 14:35:26;;;;;;;6.70;4.83;;;;;;;6.35;64.47;100929.38;5016357;23;20214;-81
2021/12/17 14:38:20;;;;;;;7.07;5.00;;;;;;;6.24;64.59;100922.53;5047819;23;20241;-82
2021/12/17 14:42:04;;;;;;;7.37;4.80;;;;;;;6.11;63.95;100914.19;5080150;23;20275;-81
2021/12/17 14:49:06;;;;;;;7.27;5.30;;;;;;;6.20;63.93;100926.53;5046120;23;20227;-81
2021/12/17 15:05:36;;;;;;;6.67;4.60;;;;;;;5.77;64.04;100908.81;5031730;23;20246;-81
2021/12/17 15:11:41;;;;;;;6.87;4.80;;;;;;;5.88;64.50;100916.53;5011999;23;20253;-82
2021/12/17 15:14:54;;;;;;;8.23;5.37;;;;;;;5.83;64.82;100908.19;5146712;23;20190;-81
2021/12/17 15:18:14;;;;;;;7.37;5.27;;;;;;;5.84;64.92;100922.28;5152451;23;20244;-81
2021/12/17 15:21:44;;;;;;;8.70;5.70;;;;;;;5.86;65.27;100917.66;5049536;28;20202;-82
2021/12/17 15:25:02;;;;;;;7.73;5.40;;;;;;;5.83;64.97;100891.41;5055364;28;20214;-82
2021/12/17 15:28:33;;;;;;;8.57;5.30;;;;;;;5.78;65.31;100908.63;5051781;23;20257;-82
2021/12/17 15:32:01;;;;;;;8.97;5.50;;;;;;;5.65;66.22;100899.41;5019601;23;20211;-82
2021/12/17 15:35:00;;;;;;;7.00;5.27;;;;;;;5.78;65.81;100910.50;4989965;28;20234;-81
2021/12/17 15:38:08;;;;;;;7.47;5.20;;;;;;;5.78;65.69;100912.31;5019018;23;20229;-82
2021/12/17 15:41:45;;;;;;;8.07;5.40;;;;;;;5.61;65.98;100922.84;5052071;23;20257;-82
2021/12/17 15:48:36;;;;;;;7.43;5.40;;;;;;;5.62;65.85;100913.03;4983451;23;20205;-83
2021/12/17 15:51:12;;;;;;;7.17;5.20;;;;;;;5.66;66.14;100925.84;5016211;28;20238;-82
2021/12/17 15:54:28;;;;;;;7.57;4.87;;;;;;;5.71;65.60;100920.91;5034750;23;20222;-83
2021/12/17 16:00:54;;;;;;;6.97;5.20;;;;;;;5.76;65.41;100920.44;4966694;23;20240;-82
2021/12/17 16:04:07;;;;;;;7.73;4.63;;;;;;;5.78;65.19;100929.09;4941271;29;20296;-81
2021/12/17 16:07:10;;;;;;;6.60;4.90;;;;;;;5.75;65.33;100924.06;5017115;23;20234;-81
2021/12/17 16:16:54;;;;;;;7.83;5.07;;;;;;;5.94;64.75;100923.06;5035867;28;20202;-83
2021/12/17 16:23:42;;;;;;;8.17;4.73;;;;;;;5.97;64.03;100936.06;5035322;28;20218;-83
2021/12/17 16:27:20;;;;;;;8.17;4.83;;;;;;;5.89;64.10;100918.22;5033337;28;20210;-84
2021/12/17 16:29:51;;;;;;;7.87;4.73;;;;;;;5.95;64.36;100927.38;5051745;28;20221;-84
2021/12/17 16:33:06;;;;;;;7.50;4.87;;;;;;;5.70;64.24;100905.09;5061810;23;20230;-84
2021/12/17 16:36:11;;;;;;;7.87;5.63;;;;;;;5.92;64.40;100941.00;4961371;27;6010901;-83
2021/12/17 16:39:02;;;;;;;8.60;5.67;;;;;;;5.93;64.50;100942.66;5152099;28;20261;-84
2021/12/17 16:42:16;;;;;;;9.33;5.20;;;;;;;6.02;64.06;100955.03;5130204;22;20235;-83
2021/12/17 16:45:22;;;;;;;9.00;6.30;;;;;;;5.90;64.46;100938.50;5107725;22;20228;-83
2021/12/17 16:49:10;;;;;;;9.40;5.43;;;;;;;5.90;64.57;100941.16;5125845;22;20227;-83
2021/12/17 16:52:21;;;;;;;7.57;6.23;;;;;;;5.94;64.86;100953.16;5110224;28;20199;-83
2021/12/17 16:55:50;;;;;;;8.13;5.67;;;;;;;5.94;65.32;100961.13;5112452;28;20596;-83
2021/12/17 16:59:24;;;;;;;10.20;6.03;;;;;;;5.87;65.18;100951.28;5103269;28;20192;-83
2021/12/17 17:02:01;;;;;;;9.00;6.00;;;;;;;5.89;65.02;100957.28;5118430;22;20232;-83
2021/12/17 17:05:03;;;;;;;8.20;5.90;;;;;;;5.89;65.17;100962.59;5092260;28;20189;-83
2021/12/17 17:08:11;;;;;;;7.53;5.57;;;;;;;5.83;65.29;100933.94;5020105;23;20221;-83
2021/12/17 17:11:38;;;;;;;8.17;6.67;;;;;;;5.81;66.19;100944.72;5059709;23;20218;-83
2021/12/17 17:15:05;;;;;;;9.47;6.13;;;;;;;5.80;66.16;100940.41;5012431;23;20222;-83
2021/12/17 17:18:13;;;;;;;11.63;6.67;;;;;;;5.61;66.62;100929.97;5043014;23;20846;-83
2021/12/17 17:21:21;;;;;;;9.63;6.57;;;;;;;5.72;66.07;100949.16;5013959;23;20262;-83
2021/12/17 17:24:20;;;;;;;8.43;6.07;;;;;;;5.87;65.92;100946.81;4997497;28;20284;-83
2021/12/17 17:27:25;;;;;;;7.60;6.07;;;;;;;5.73;66.09;100948.19;5032347;23;20238;-83
2021/12/17 17:30:41;;;;;;;8.57;6.30;;;;;;;5.85;66.23;100951.41;5031450;28;20223;-83
2021/12/17 17:34:08;;;;;;;9.97;6.60;;;;;;;5.88;66.05;100951.13;5037600;23;20212;-83
2021/12/17 17:38:46;;;;;;;8.60;6.07;;;;;;;6.01;65.35;100958.69;5115316;23;20218;-83
2021/12/17 17:42:23;;;;;;;10.73;6.67;;;;;;;6.03;65.89;100962.00;5054701;23;20700;-83
2021/12/17 17:45:58;;;;;;;8.40;5.77;;;;;;;6.02;65.29;100955.84;5063403;22;20217;-83
2021/12/17 17:49:58;;;;;;;9.60;6.00;;;;;;;6.17;65.93;100956.94;5040487;23;20257;-82
2021/12/17 17:52:43;;;;;;;8.17;5.80;;;;;;;6.24;65.96;100980.25;5045085;23;20215;-82
2021/12/17 17:56:29;;;;;;;9.80;6.20;;;;;;;6.10;65.93;100971.88;5038145;28;20505;-82
2021/12/17 17:59:54;;;;;;;7.87;6.37;;;;;;;6.03;66.48;100962.84;5046919;23;20234;-82
2021/12/17 18:03:03;;;;;;;11.03;6.83;;;;;;;6.09;66.20;100969.38;5024670;28;20257;-83
2021/12/17 18:06:13;;;;;;;10.77;6.63;;;;;;;6.19;66.50;100970.94;5027748;23;20242;-84
2021/12/17 18:09:17;;;;;;;8.30;6.27;;;;;;;6.09;66.17;100964.88;5039563;28;20230;-83
2021/12/17 18:12:21;;;;;;;9.00;6.33;;;;;;;6.18;66.24;100971.91;5062917;23;20222;-82
2021/12/17 18:16:06;;;;;;;12.53;7.17;;;;;;;6.16;66.43;100943.78;5045748;23;20274;31
2021/12/17 18:19:41;;;;;;;10.27;7.30;;;;;;;6.04;66.70;100967.19;5033973;23;20266;-82
2021/12/17 18:22:54;;;;;;;7.87;6.80;;;;;;;6.03;66.53;100973.50;5043162;23;20199;-81
2021/12/17 18:26:11;;;;;;;11.83;7.23;;;;;;;5.88;66.68;100963.59;5127600;23;20223;-82
2021/12/17 18:29:14;;;;;;;9.53;7.37;;;;;;;5.89;66.87;100966.09;5038824;23;20227;-82
2021/12/17 18:32:37;;;;;;;10.17;7.40;;;;;;;5.78;66.86;100950.38;5045404;23;20222;-84
2021/12/17 18:36:28;;;;;;;10.97;7.53;;;;;;;5.81;67.47;100984.63;5045384;23;20233;-83
2021/12/17 18:39:44;;;;;;;10.77;7.57;;;;;;;5.86;67.82;100969.03;5053403;23;20297;-82
2021/12/17 18:46:17;;;;;;;8.97;7.57;;;;;;;5.68;67.62;100984.22;1411805;23;20237;-83
2021/12/17 18:49:55;;;;;;;9.93;6.97;;;;;;;5.60;67.95;100998.25;5032600;23;20217;-83
2021/12/17 18:53:20;;;;;;;9.13;6.43;;;;;;;5.58;67.42;100989.63;5229351;23;20202;-82
2021/12/17 18:57:00;;;;;;;9.93;6.67;;;;;;;5.43;67.36;100983.19;5012045;23;20265;-82
2021/12/17 19:00:56;;;;;;;8.70;6.10;;;;;;;5.56;67.24;101006.69;5019568;23;20218;-82
2021/12/17 19:04:12;;;;;;;9.83;6.23;;;;;;;5.18;67.71;100986.63;4950460;23;20232;-83
2021/12/17 19:07:23;;;;;;;9.10;5.60;;;;;;;5.12;68.20;101004.00;5032793;23;20234;-82
2021/12/17 19:11:14;;;;;;;7.37;5.67;;;;;;;5.11;67.40;101010.28;5030647;23;20184;-82
2021/12/17 19:14:05;;;;;;;7.43;5.80;;;;;;;5.11;68.30;101028.06;5030523;23;20221;-81
2021/12/17 19:17:35;;;;;;;8.00;5.40;;;;;;;5.15;67.30;101026.75;5124510;23;20271;-81
2021/12/17 19:20:42;;;;;;;7.77;4.80;;;;;;;5.14;67.42;101025.91;5030865;23;20236;-82
2021/12/17 19:23:54;;;;;;;5.80;4.73;;;;;;;5.15;67.62;101024.94;4964087;29;20237;-82
2021/12/17 19:27:46;;;;;;;9.40;5.07;;;;;;;4.98;67.73;101022.28;5016089;23;20215;-82
2021/12/17 19:31:34;;;;;;;7.53;4.50;;;;;;;4.70;67.61;100984.28;5015203;23;20214;-82
2021/12/17 19:35:19;;;;;;;6.57;4.80;;;;;;;4.78;67.55;100997.66;5021692;23;20218;-82
2021/12/17 19:38:51;;;;;;;7.93;4.77;;;;;;;4.84;67.60;101029.78;5043058;23;20273;-82
2021/12/17 19:42:01;;;;;;;6.03;4.53;;;;;;;4.78;67.76;101021.56;5032765;23;20235;-82
2021/12/17 19:45:54;;;;;;;5.80;4.53;;;;;;;4.79;67.78;101016.09;5033698;23;20238;-82